sensor_id;sensor_type;location;lat;lon;timestamp;P1;durP1;ratioP1;P2;durP2;ratioP2
74421;SDS011;62856;51.446;8.360;2022-11-25T00:01:29;4.80;;;1.02;;
74421;SDS011;62856;51.446;8.360;2022-11-25T00:03:57;3.85;;;0.80;;
74421;SDS011;62856;51.446;8.360;2022-11-25T00:06:24;4.40;;;0.82;;
74421;SDS011;62856;51.446;8.360;2022-11-25T00:08:52;5.93;;;1.35;;
74421;SDS011;62856;51.446;8.360;2022-11-25T00:11:19;6.15;;;0.98;;
74421;SDS011;62856;51.446;8.360;2022-11-25T00:13:45;5.33;;;0.83;;
74421;SDS011;62856;51.446;8.360;2022-11-25T00:16:18;8.70;;;1.10;;
74421;SDS011;62856;51.446;8.360;2022-11-25T00:18:45;7.60;;;1.05;;
74421;SDS011;62856;51.446;8.360;2022-11-25T00:21:12;6.40;;;1.42;;
74421;SDS011;62856;51.446;8.360;2022-11-25T00:26:11;4.43;;;0.87;;
74421;SDS011;62856;51.446;8.360;2022-11-25T00:28:39;4.93;;;0.80;;
74421;SDS011;62856;51.446;8.360;2022-11-25T00:31:07;6.47;;;1.40;;
74421;SDS011;62856;51.446;8.360;2022-11-25T00:36:03;6.55;;;0.90;;
74421;SDS011;62856;51.446;8.360;2022-11-25T00:38:30;8.38;;;1.42;;
74421;SDS011;62856;51.446;8.360;2022-11-25T00:40:56;5.22;;;1.27;;
74421;SDS011;62856;51.446;8.360;2022-11-25T00:43:40;4.70;;;1.02;;
74421;SDS011;62856;51.446;8.360;2022-11-25T00:46:24;3.03;;;0.52;;
74421;SDS011;62856;51.446;8.360;2022-11-25T00:48:49;4.70;;;0.93;;
74421;SDS011;62856;51.446;8.360;2022-11-25T00:51:14;3.60;;;0.80;;
74421;SDS011;62856;51.446;8.360;2022-11-25T00:53:40;2.60;;;1.10;;
74421;SDS011;62856;51.446;8.360;2022-11-25T00:56:05;3.23;;;0.90;;
74421;SDS011;62856;51.446;8.360;2022-11-25T00:58:40;3.92;;;0.80;;
74421;SDS011;62856;51.446;8.360;2022-11-25T01:01:07;7.18;;;1.20;;
74421;SDS011;62856;51.446;8.360;2022-11-25T01:03:32;4.05;;;0.80;;
74421;SDS011;62856;51.446;8.360;2022-11-25T01:06:01;4.60;;;1.10;;
74421;SDS011;62856;51.446;8.360;2022-11-25T01:08:29;7.53;;;1.00;;
74421;SDS011;62856;51.446;8.360;2022-11-25T01:10:59;6.95;;;0.80;;
74421;SDS011;62856;51.446;8.360;2022-11-25T01:13:25;4.05;;;0.90;;
74421;SDS011;62856;51.446;8.360;2022-11-25T01:15:50;3.20;;;1.00;;
74421;SDS011;62856;51.446;8.360;2022-11-25T01:18:16;4.03;;;0.77;;
74421;SDS011;62856;51.446;8.360;2022-11-25T01:20:41;7.47;;;1.00;;
74421;SDS011;62856;51.446;8.360;2022-11-25T01:23:06;2.80;;;0.73;;
74421;SDS011;62856;51.446;8.360;2022-11-25T01:25:35;5.93;;;0.77;;
74421;SDS011;62856;51.446;8.360;2022-11-25T01:28:01;4.40;;;0.77;;
74421;SDS011;62856;51.446;8.360;2022-11-25T01:30:26;2.60;;;0.70;;
74421;SDS011;62856;51.446;8.360;2022-11-25T01:32:52;4.55;;;1.10;;
74421;SDS011;62856;51.446;8.360;2022-11-25T01:35:17;4.22;;;0.98;;
74421;SDS011;62856;51.446;8.360;2022-11-25T01:37:43;8.87;;;1.13;;
74421;SDS011;62856;51.446;8.360;2022-11-25T01:40:08;4.70;;;0.77;;
74421;SDS011;62856;51.446;8.360;2022-11-25T01:42:34;3.22;;;0.80;;
74421;SDS011;62856;51.446;8.360;2022-11-25T01:45:49;6.07;;;0.80;;
74421;SDS011;62856;51.446;8.360;2022-11-25T01:48:02;3.53;;;0.60;;
74421;SDS011;62856;51.446;8.360;2022-11-25T01:50:35;6.90;;;0.88;;
74421;SDS011;62856;51.446;8.360;2022-11-25T01:53:00;4.03;;;0.88;;
74421;SDS011;62856;51.446;8.360;2022-11-25T01:55:30;5.20;;;0.98;;
74421;SDS011;62856;51.446;8.360;2022-11-25T01:58:01;3.28;;;0.60;;
74421;SDS011;62856;51.446;8.360;2022-11-25T02:00:31;5.47;;;0.93;;
74421;SDS011;62856;51.446;8.360;2022-11-25T02:02:56;3.10;;;0.68;;
74421;SDS011;62856;51.446;8.360;2022-11-25T02:05:27;5.88;;;0.73;;
74421;SDS011;62856;51.446;8.360;2022-11-25T02:07:59;5.13;;;1.55;;
74421;SDS011;62856;51.446;8.360;2022-11-25T02:10:25;3.33;;;0.65;;
74421;SDS011;62856;51.446;8.360;2022-11-25T02:12:53;6.00;;;1.45;;
74421;SDS011;62856;51.446;8.360;2022-11-25T02:15:19;2.83;;;0.90;;
74421;SDS011;62856;51.446;8.360;2022-11-25T02:17:44;5.47;;;1.20;;
74421;SDS011;62856;51.446;8.360;2022-11-25T02:20:12;6.05;;;1.10;;
74421;SDS011;62856;51.446;8.360;2022-11-25T02:22:51;4.35;;;1.10;;
74421;SDS011;62856;51.446;8.360;2022-11-25T02:25:36;3.88;;;1.02;;
74421;SDS011;62856;51.446;8.360;2022-11-25T02:28:10;3.60;;;0.77;;
74421;SDS011;62856;51.446;8.360;2022-11-25T02:30:38;2.63;;;0.80;;
74421;SDS011;62856;51.446;8.360;2022-11-25T02:33:04;3.72;;;0.85;;
74421;SDS011;62856;51.446;8.360;2022-11-25T02:35:32;2.90;;;0.70;;
74421;SDS011;62856;51.446;8.360;2022-11-25T02:37:59;4.72;;;0.80;;
74421;SDS011;62856;51.446;8.360;2022-11-25T02:40:28;4.68;;;0.70;;
74421;SDS011;62856;51.446;8.360;2022-11-25T02:42:53;4.20;;;0.57;;
74421;SDS011;62856;51.446;8.360;2022-11-25T02:45:22;5.47;;;0.93;;
74421;SDS011;62856;51.446;8.360;2022-11-25T02:47:57;5.57;;;0.80;;
74421;SDS011;62856;51.446;8.360;2022-11-25T02:50:22;3.73;;;0.83;;
74421;SDS011;62856;51.446;8.360;2022-11-25T02:52:47;3.43;;;0.73;;
74421;SDS011;62856;51.446;8.360;2022-11-25T02:55:12;3.93;;;0.57;;
74421;SDS011;62856;51.446;8.360;2022-11-25T02:57:38;5.80;;;0.70;;
74421;SDS011;62856;51.446;8.360;2022-11-25T03:00:03;5.47;;;0.70;;
74421;SDS011;62856;51.446;8.360;2022-11-25T03:02:29;6.38;;;1.00;;
74421;SDS011;62856;51.446;8.360;2022-11-25T03:04:54;4.40;;;0.77;;
74421;SDS011;62856;51.446;8.360;2022-11-25T03:07:20;6.83;;;1.00;;
74421;SDS011;62856;51.446;8.360;2022-11-25T03:09:45;3.80;;;0.70;;
74421;SDS011;62856;51.446;8.360;2022-11-25T03:12:10;6.35;;;0.98;;
74421;SDS011;62856;51.446;8.360;2022-11-25T03:14:45;2.75;;;0.70;;
74421;SDS011;62856;51.446;8.360;2022-11-25T03:17:10;3.05;;;0.73;;
74421;SDS011;62856;51.446;8.360;2022-11-25T03:19:36;4.32;;;0.88;;
74421;SDS011;62856;51.446;8.360;2022-11-25T03:22:02;7.50;;;1.15;;
74421;SDS011;62856;51.446;8.360;2022-11-25T03:24:27;4.22;;;0.73;;
74421;SDS011;62856;51.446;8.360;2022-11-25T03:26:53;4.78;;;1.00;;
74421;SDS011;62856;51.446;8.360;2022-11-25T03:29:18;5.77;;;1.20;;
74421;SDS011;62856;51.446;8.360;2022-11-25T03:31:43;5.13;;;1.30;;
74421;SDS011;62856;51.446;8.360;2022-11-25T03:34:08;5.33;;;0.77;;
74421;SDS011;62856;51.446;8.360;2022-11-25T03:36:34;3.03;;;0.65;;
74421;SDS011;62856;51.446;8.360;2022-11-25T03:38:59;3.13;;;1.00;;
74421;SDS011;62856;51.446;8.360;2022-11-25T03:41:25;4.78;;;0.80;;
74421;SDS011;62856;51.446;8.360;2022-11-25T03:43:50;2.40;;;0.60;;
74421;SDS011;62856;51.446;8.360;2022-11-25T03:46:15;3.00;;;0.83;;
74421;SDS011;62856;51.446;8.360;2022-11-25T03:48:41;5.32;;;1.45;;
74421;SDS011;62856;51.446;8.360;2022-11-25T03:51:06;2.63;;;0.70;;
74421;SDS011;62856;51.446;8.360;2022-11-25T03:53:31;5.87;;;0.97;;
74421;SDS011;62856;51.446;8.360;2022-11-25T03:55:56;2.72;;;0.65;;
74421;SDS011;62856;51.446;8.360;2022-11-25T03:58:22;2.83;;;0.88;;
74421;SDS011;62856;51.446;8.360;2022-11-25T04:00:47;4.60;;;0.70;;
74421;SDS011;62856;51.446;8.360;2022-11-25T04:03:12;5.73;;;0.90;;
74421;SDS011;62856;51.446;8.360;2022-11-25T04:05:37;7.25;;;0.82;;
74421;SDS011;62856;51.446;8.360;2022-11-25T04:08:03;2.27;;;0.50;;
74421;SDS011;62856;51.446;8.360;2022-11-25T04:10:28;5.13;;;1.25;;
74421;SDS011;62856;51.446;8.360;2022-11-25T04:12:53;4.63;;;0.83;;
74421;SDS011;62856;51.446;8.360;2022-11-25T04:15:19;4.30;;;1.15;;
74421;SDS011;62856;51.446;8.360;2022-11-25T04:17:44;3.38;;;0.60;;
74421;SDS011;62856;51.446;8.360;2022-11-25T04:20:10;4.30;;;0.88;;
74421;SDS011;62856;51.446;8.360;2022-11-25T04:22:37;3.97;;;0.85;;
74421;SDS011;62856;51.446;8.360;2022-11-25T04:25:02;5.93;;;0.80;;
74421;SDS011;62856;51.446;8.360;2022-11-25T04:27:28;3.58;;;0.65;;
74421;SDS011;62856;51.446;8.360;2022-11-25T04:29:53;3.42;;;0.65;;
74421;SDS011;62856;51.446;8.360;2022-11-25T04:32:19;2.30;;;0.80;;
74421;SDS011;62856;51.446;8.360;2022-11-25T04:34:44;2.10;;;0.63;;
74421;SDS011;62856;51.446;8.360;2022-11-25T04:37:09;3.60;;;0.60;;
74421;SDS011;62856;51.446;8.360;2022-11-25T04:39:35;3.85;;;1.02;;
74421;SDS011;62856;51.446;8.360;2022-11-25T04:42:00;4.65;;;1.00;;
74421;SDS011;62856;51.446;8.360;2022-11-25T04:44:44;4.75;;;0.80;;
74421;SDS011;62856;51.446;8.360;2022-11-25T04:47:09;1.23;;;0.40;;
74421;SDS011;62856;51.446;8.360;2022-11-25T04:49:35;3.23;;;0.60;;
74421;SDS011;62856;51.446;8.360;2022-11-25T04:52:00;2.23;;;0.70;;
74421;SDS011;62856;51.446;8.360;2022-11-25T04:54:25;4.63;;;0.80;;
74421;SDS011;62856;51.446;8.360;2022-11-25T04:56:50;3.40;;;0.80;;
74421;SDS011;62856;51.446;8.360;2022-11-25T04:59:16;3.03;;;0.80;;
74421;SDS011;62856;51.446;8.360;2022-11-25T05:01:59;1.88;;;0.65;;
74421;SDS011;62856;51.446;8.360;2022-11-25T05:04:25;4.60;;;0.70;;
74421;SDS011;62856;51.446;8.360;2022-11-25T05:06:50;5.37;;;0.77;;
74421;SDS011;62856;51.446;8.360;2022-11-25T05:09:16;2.42;;;0.60;;
74421;SDS011;62856;51.446;8.360;2022-11-25T05:11:41;6.40;;;0.80;;
74421;SDS011;62856;51.446;8.360;2022-11-25T05:14:06;2.93;;;0.70;;
74421;SDS011;62856;51.446;8.360;2022-11-25T05:16:32;4.32;;;1.13;;
74421;SDS011;62856;51.446;8.360;2022-11-25T05:18:57;2.85;;;0.65;;
74421;SDS011;62856;51.446;8.360;2022-11-25T05:21:23;4.53;;;0.77;;
74421;SDS011;62856;51.446;8.360;2022-11-25T05:23:48;6.80;;;1.02;;
74421;SDS011;62856;51.446;8.360;2022-11-25T05:26:13;4.30;;;0.68;;
74421;SDS011;62856;51.446;8.360;2022-11-25T05:28:39;4.72;;;0.80;;
74421;SDS011;62856;51.446;8.360;2022-11-25T05:31:04;3.75;;;0.50;;
74421;SDS011;62856;51.446;8.360;2022-11-25T05:33:30;2.65;;;0.68;;
74421;SDS011;62856;51.446;8.360;2022-11-25T05:35:56;3.28;;;0.80;;
74421;SDS011;62856;51.446;8.360;2022-11-25T05:38:23;3.10;;;0.57;;
74421;SDS011;62856;51.446;8.360;2022-11-25T05:40:49;5.00;;;0.75;;
74421;SDS011;62856;51.446;8.360;2022-11-25T05:43:14;6.38;;;0.90;;
74421;SDS011;62856;51.446;8.360;2022-11-25T05:45:40;1.60;;;0.47;;
74421;SDS011;62856;51.446;8.360;2022-11-25T05:48:05;3.55;;;0.85;;
74421;SDS011;62856;51.446;8.360;2022-11-25T05:50:30;3.80;;;0.60;;
74421;SDS011;62856;51.446;8.360;2022-11-25T05:52:56;4.45;;;0.90;;
74421;SDS011;62856;51.446;8.360;2022-11-25T05:55:21;4.07;;;0.90;;
74421;SDS011;62856;51.446;8.360;2022-11-25T05:57:46;3.63;;;0.85;;
74421;SDS011;62856;51.446;8.360;2022-11-25T06:00:12;2.67;;;0.65;;
74421;SDS011;62856;51.446;8.360;2022-11-25T06:02:37;2.85;;;0.68;;
74421;SDS011;62856;51.446;8.360;2022-11-25T06:05:03;2.87;;;0.80;;
74421;SDS011;62856;51.446;8.360;2022-11-25T06:07:28;4.70;;;0.77;;
74421;SDS011;62856;51.446;8.360;2022-11-25T06:09:54;2.60;;;0.65;;
74421;SDS011;62856;51.446;8.360;2022-11-25T06:12:20;6.20;;;0.87;;
74421;SDS011;62856;51.446;8.360;2022-11-25T06:14:46;3.55;;;0.73;;
74421;SDS011;62856;51.446;8.360;2022-11-25T06:17:11;4.50;;;1.00;;
74421;SDS011;62856;51.446;8.360;2022-11-25T06:19:36;3.22;;;0.75;;
74421;SDS011;62856;51.446;8.360;2022-11-25T06:22:02;4.78;;;0.80;;
74421;SDS011;62856;51.446;8.360;2022-11-25T06:24:27;3.25;;;0.80;;
74421;SDS011;62856;51.446;8.360;2022-11-25T06:26:54;6.07;;;0.80;;
74421;SDS011;62856;51.446;8.360;2022-11-25T06:29:19;2.50;;;0.90;;
74421;SDS011;62856;51.446;8.360;2022-11-25T06:31:45;6.00;;;1.10;;
74421;SDS011;62856;51.446;8.360;2022-11-25T06:34:10;3.83;;;0.90;;
74421;SDS011;62856;51.446;8.360;2022-11-25T06:36:35;4.27;;;0.83;;
74421;SDS011;62856;51.446;8.360;2022-11-25T06:39:00;3.50;;;0.98;;
74421;SDS011;62856;51.446;8.360;2022-11-25T06:41:26;2.80;;;0.77;;
74421;SDS011;62856;51.446;8.360;2022-11-25T06:43:51;4.83;;;1.00;;
74421;SDS011;62856;51.446;8.360;2022-11-25T06:46:17;4.17;;;0.80;;
74421;SDS011;62856;51.446;8.360;2022-11-25T06:48:43;3.50;;;0.93;;
74421;SDS011;62856;51.446;8.360;2022-11-25T06:51:10;5.20;;;0.90;;
74421;SDS011;62856;51.446;8.360;2022-11-25T06:53:36;5.70;;;0.93;;
74421;SDS011;62856;51.446;8.360;2022-11-25T06:56:13;3.13;;;0.80;;
74421;SDS011;62856;51.446;8.360;2022-11-25T06:58:40;3.60;;;0.88;;
74421;SDS011;62856;51.446;8.360;2022-11-25T07:01:09;8.43;;;1.13;;
74421;SDS011;62856;51.446;8.360;2022-11-25T07:03:43;4.00;;;0.88;;
74421;SDS011;62856;51.446;8.360;2022-11-25T07:06:12;4.82;;;1.02;;
74421;SDS011;62856;51.446;8.360;2022-11-25T07:08:39;4.05;;;0.85;;
74421;SDS011;62856;51.446;8.360;2022-11-25T07:11:07;5.22;;;0.93;;
74421;SDS011;62856;51.446;8.360;2022-11-25T07:13:36;4.82;;;1.45;;
74421;SDS011;62856;51.446;8.360;2022-11-25T07:16:02;4.20;;;1.00;;
74421;SDS011;62856;51.446;8.360;2022-11-25T07:18:35;5.55;;;0.90;;
74421;SDS011;62856;51.446;8.360;2022-11-25T07:21:03;5.88;;;0.95;;
74421;SDS011;62856;51.446;8.360;2022-11-25T07:23:29;1.80;;;0.70;;
74421;SDS011;62856;51.446;8.360;2022-11-25T07:25:54;6.20;;;1.00;;
74421;SDS011;62856;51.446;8.360;2022-11-25T07:28:19;4.13;;;0.90;;
74421;SDS011;62856;51.446;8.360;2022-11-25T07:30:45;6.20;;;1.15;;
74421;SDS011;62856;51.446;8.360;2022-11-25T07:33:10;5.15;;;1.00;;
74421;SDS011;62856;51.446;8.360;2022-11-25T07:35:35;4.63;;;1.00;;
74421;SDS011;62856;51.446;8.360;2022-11-25T07:38:01;4.40;;;0.97;;
74421;SDS011;62856;51.446;8.360;2022-11-25T07:40:26;3.03;;;0.80;;
74421;SDS011;62856;51.446;8.360;2022-11-25T07:42:52;5.15;;;0.90;;
74421;SDS011;62856;51.446;8.360;2022-11-25T07:45:17;6.20;;;1.33;;
74421;SDS011;62856;51.446;8.360;2022-11-25T07:47:42;5.00;;;0.80;;
74421;SDS011;62856;51.446;8.360;2022-11-25T07:50:08;3.20;;;0.73;;
74421;SDS011;62856;51.446;8.360;2022-11-25T07:52:35;4.07;;;0.80;;
74421;SDS011;62856;51.446;8.360;2022-11-25T07:55:01;3.03;;;1.08;;
74421;SDS011;62856;51.446;8.360;2022-11-25T07:57:27;6.93;;;1.17;;
74421;SDS011;62856;51.446;8.360;2022-11-25T07:59:52;7.40;;;1.25;;
74421;SDS011;62856;51.446;8.360;2022-11-25T08:02:18;4.07;;;0.97;;
74421;SDS011;62856;51.446;8.360;2022-11-25T08:04:43;4.83;;;1.40;;
74421;SDS011;62856;51.446;8.360;2022-11-25T08:07:09;4.13;;;1.00;;
74421;SDS011;62856;51.446;8.360;2022-11-25T08:09:34;5.35;;;1.30;;
74421;SDS011;62856;51.446;8.360;2022-11-25T08:11:59;5.03;;;1.25;;
74421;SDS011;62856;51.446;8.360;2022-11-25T08:14:25;7.37;;;1.37;;
74421;SDS011;62856;51.446;8.360;2022-11-25T08:16:50;4.50;;;1.20;;
74421;SDS011;62856;51.446;8.360;2022-11-25T08:19:16;5.50;;;1.85;;
74421;SDS011;62856;51.446;8.360;2022-11-25T08:21:42;4.78;;;0.82;;
74421;SDS011;62856;51.446;8.360;2022-11-25T08:24:09;3.58;;;1.00;;
74421;SDS011;62856;51.446;8.360;2022-11-25T08:26:39;6.10;;;1.23;;
74421;SDS011;62856;51.446;8.360;2022-11-25T08:29:05;5.63;;;1.33;;
74421;SDS011;62856;51.446;8.360;2022-11-25T08:31:32;5.60;;;1.38;;
74421;SDS011;62856;51.446;8.360;2022-11-25T08:33:59;7.30;;;1.30;;
74421;SDS011;62856;51.446;8.360;2022-11-25T08:36:25;6.88;;;1.70;;
74421;SDS011;62856;51.446;8.360;2022-11-25T08:38:53;5.40;;;1.45;;
74421;SDS011;62856;51.446;8.360;2022-11-25T08:41:22;5.72;;;1.42;;
74421;SDS011;62856;51.446;8.360;2022-11-25T08:43:49;5.60;;;1.45;;
74421;SDS011;62856;51.446;8.360;2022-11-25T08:46:16;6.23;;;1.60;;
74421;SDS011;62856;51.446;8.360;2022-11-25T08:48:43;6.35;;;1.73;;
74421;SDS011;62856;51.446;8.360;2022-11-25T08:51:10;9.47;;;1.50;;
74421;SDS011;62856;51.446;8.360;2022-11-25T08:53:38;4.80;;;1.40;;
74421;SDS011;62856;51.446;8.360;2022-11-25T08:56:04;8.10;;;1.50;;
74421;SDS011;62856;51.446;8.360;2022-11-25T08:58:29;5.18;;;1.65;;
74421;SDS011;62856;51.446;8.360;2022-11-25T09:00:55;8.68;;;1.63;;
74421;SDS011;62856;51.446;8.360;2022-11-25T09:03:20;4.82;;;1.30;;
74421;SDS011;62856;51.446;8.360;2022-11-25T09:05:46;5.28;;;1.40;;
74421;SDS011;62856;51.446;8.360;2022-11-25T09:08:12;5.25;;;1.15;;
74421;SDS011;62856;51.446;8.360;2022-11-25T09:10:38;5.20;;;1.58;;
74421;SDS011;62856;51.446;8.360;2022-11-25T09:13:04;5.85;;;1.55;;
74421;SDS011;62856;51.446;8.360;2022-11-25T09:15:30;6.57;;;1.45;;
74421;SDS011;62856;51.446;8.360;2022-11-25T09:17:56;4.38;;;1.33;;
74421;SDS011;62856;51.446;8.360;2022-11-25T09:20:26;5.75;;;1.10;;
74421;SDS011;62856;51.446;8.360;2022-11-25T09:22:51;2.40;;;0.88;;
74421;SDS011;62856;51.446;8.360;2022-11-25T09:25:17;3.67;;;1.17;;
74421;SDS011;62856;51.446;8.360;2022-11-25T09:27:42;3.22;;;1.20;;
74421;SDS011;62856;51.446;8.360;2022-11-25T09:30:07;5.70;;;1.17;;
74421;SDS011;62856;51.446;8.360;2022-11-25T09:32:33;5.35;;;1.13;;
74421;SDS011;62856;51.446;8.360;2022-11-25T09:34:58;3.97;;;1.35;;
74421;SDS011;62856;51.446;8.360;2022-11-25T09:37:23;3.93;;;1.07;;
74421;SDS011;62856;51.446;8.360;2022-11-25T09:39:50;3.80;;;1.07;;
74421;SDS011;62856;51.446;8.360;2022-11-25T09:48:52;4.20;;;0.90;;
74421;SDS011;62856;51.446;8.360;2022-11-25T09:51:21;4.82;;;1.35;;
74421;SDS011;62856;51.446;8.360;2022-11-25T09:53:52;4.43;;;0.90;;
74421;SDS011;62856;51.446;8.360;2022-11-25T09:56:33;4.07;;;0.95;;
74421;SDS011;62856;51.446;8.360;2022-11-25T09:59:06;4.57;;;1.10;;
74421;SDS011;62856;51.446;8.360;2022-11-25T10:01:48;4.03;;;1.00;;
74421;SDS011;62856;51.446;8.360;2022-11-25T10:04:20;2.60;;;0.90;;
74421;SDS011;62856;51.446;8.360;2022-11-25T10:06:54;3.67;;;0.95;;
74421;SDS011;62856;51.446;8.360;2022-11-25T10:09:25;4.05;;;1.20;;
74421;SDS011;62856;51.446;8.360;2022-11-25T10:11:58;4.50;;;1.10;;
74421;SDS011;62856;51.446;8.360;2022-11-25T10:14:36;5.68;;;1.40;;
74421;SDS011;62856;51.446;8.360;2022-11-25T10:19:59;3.88;;;1.02;;
74421;SDS011;62856;51.446;8.360;2022-11-25T10:22:34;2.83;;;0.80;;
74421;SDS011;62856;51.446;8.360;2022-11-25T10:33:37;2.47;;;0.90;;
74421;SDS011;62856;51.446;8.360;2022-11-25T10:36:18;4.47;;;1.10;;
74421;SDS011;62856;51.446;8.360;2022-11-25T10:38:58;3.92;;;1.58;;
74421;SDS011;62856;51.446;8.360;2022-11-25T10:41:25;3.47;;;1.10;;
74421;SDS011;62856;51.446;8.360;2022-11-25T10:43:52;4.38;;;1.10;;
74421;SDS011;62856;51.446;8.360;2022-11-25T10:49:06;3.95;;;0.95;;
74421;SDS011;62856;51.446;8.360;2022-11-25T10:51:48;7.15;;;1.20;;
74421;SDS011;62856;51.446;8.360;2022-11-25T10:54:16;2.70;;;0.98;;
74421;SDS011;62856;51.446;8.360;2022-11-25T10:59:22;3.92;;;1.00;;
74421;SDS011;62856;51.446;8.360;2022-11-25T11:01:48;5.30;;;1.60;;
74421;SDS011;62856;51.446;8.360;2022-11-25T11:04:15;6.38;;;1.10;;
74421;SDS011;62856;51.446;8.360;2022-11-25T11:06:44;3.90;;;1.20;;
74421;SDS011;62856;51.446;8.360;2022-11-25T11:14:21;3.57;;;0.90;;
74421;SDS011;62856;51.446;8.360;2022-11-25T11:16:51;6.25;;;1.35;;
74421;SDS011;62856;51.446;8.360;2022-11-25T11:19:19;5.75;;;1.20;;
74421;SDS011;62856;51.446;8.360;2022-11-25T11:21:50;6.40;;;1.25;;
74421;SDS011;62856;51.446;8.360;2022-11-25T11:24:30;3.70;;;1.10;;
74421;SDS011;62856;51.446;8.360;2022-11-25T11:29:47;3.13;;;0.90;;
74421;SDS011;62856;51.446;8.360;2022-11-25T11:32:30;5.43;;;1.15;;
74421;SDS011;62856;51.446;8.360;2022-11-25T11:35:03;6.50;;;1.40;;
74421;SDS011;62856;51.446;8.360;2022-11-25T11:48:10;7.82;;;1.05;;
74421;SDS011;62856;51.446;8.360;2022-11-25T11:50:52;2.75;;;0.82;;
74421;SDS011;62856;51.446;8.360;2022-11-25T12:06:55;4.43;;;1.08;;
74421;SDS011;62856;51.446;8.360;2022-11-25T12:09:46;5.70;;;1.50;;
74421;SDS011;62856;51.446;8.360;2022-11-25T12:12:16;3.40;;;1.02;;
74421;SDS011;62856;51.446;8.360;2022-11-25T12:14:50;6.25;;;1.58;;
74421;SDS011;62856;51.446;8.360;2022-11-25T12:17:31;5.70;;;1.48;;
74421;SDS011;62856;51.446;8.360;2022-11-25T12:22:41;5.75;;;1.17;;
74421;SDS011;62856;51.446;8.360;2022-11-25T12:25:18;5.43;;;1.40;;
74421;SDS011;62856;51.446;8.360;2022-11-25T12:27:49;6.00;;;1.65;;
74421;SDS011;62856;51.446;8.360;2022-11-25T12:30:33;5.75;;;1.58;;
74421;SDS011;62856;51.446;8.360;2022-11-25T12:33:20;10.68;;;2.38;;
74421;SDS011;62856;51.446;8.360;2022-11-25T12:35:59;9.35;;;2.90;;
74421;SDS011;62856;51.446;8.360;2022-11-25T12:44:20;10.50;;;3.30;;
74421;SDS011;62856;51.446;8.360;2022-11-25T12:46:52;10.60;;;2.85;;
74421;SDS011;62856;51.446;8.360;2022-11-25T12:49:26;11.43;;;3.03;;
74421;SDS011;62856;51.446;8.360;2022-11-25T12:55:12;6.80;;;2.13;;
74421;SDS011;62856;51.446;8.360;2022-11-25T13:00:31;8.10;;;1.90;;
74421;SDS011;62856;51.446;8.360;2022-11-25T13:05:58;6.95;;;1.58;;
74421;SDS011;62856;51.446;8.360;2022-11-25T13:16:50;5.55;;;1.27;;
74421;SDS011;62856;51.446;8.360;2022-11-25T13:19:17;5.78;;;1.48;;
74421;SDS011;62856;51.446;8.360;2022-11-25T13:21:59;3.90;;;1.23;;
74421;SDS011;62856;51.446;8.360;2022-11-25T13:24:47;3.72;;;1.13;;
74421;SDS011;62856;51.446;8.360;2022-11-25T13:29:57;4.63;;;1.15;;
74421;SDS011;62856;51.446;8.360;2022-11-25T13:32:30;3.70;;;1.08;;
74421;SDS011;62856;51.446;8.360;2022-11-25T13:37:46;6.55;;;1.42;;
74421;SDS011;62856;51.446;8.360;2022-11-25T13:42:47;6.63;;;1.50;;
74421;SDS011;62856;51.446;8.360;2022-11-25T13:45:24;4.32;;;1.27;;
74421;SDS011;62856;51.446;8.360;2022-11-25T13:48:26;5.10;;;1.42;;
74421;SDS011;62856;51.446;8.360;2022-11-25T13:51:11;4.68;;;1.23;;
74421;SDS011;62856;51.446;8.360;2022-11-25T13:53:40;3.92;;;1.33;;
74421;SDS011;62856;51.446;8.360;2022-11-25T13:56:13;9.20;;;1.75;;
74421;SDS011;62856;51.446;8.360;2022-11-25T14:01:39;5.95;;;1.40;;
74421;SDS011;62856;51.446;8.360;2022-11-25T14:04:15;5.70;;;1.80;;
74421;SDS011;62856;51.446;8.360;2022-11-25T14:07:29;6.57;;;1.45;;
74421;SDS011;62856;51.446;8.360;2022-11-25T14:09:55;10.73;;;1.95;;
74421;SDS011;62856;51.446;8.360;2022-11-25T14:12:42;7.03;;;2.13;;
74421;SDS011;62856;51.446;8.360;2022-11-25T14:20:50;10.15;;;2.92;;
74421;SDS011;62856;51.446;8.360;2022-11-25T14:26:29;8.45;;;2.10;;
74421;SDS011;62856;51.446;8.360;2022-11-25T14:28:58;6.82;;;2.22;;
74421;SDS011;62856;51.446;8.360;2022-11-25T14:31:31;9.65;;;3.05;;
74421;SDS011;62856;51.446;8.360;2022-11-25T14:34:21;8.85;;;3.05;;
74421;SDS011;62856;51.446;8.360;2022-11-25T14:36:55;10.02;;;3.90;;
74421;SDS011;62856;51.446;8.360;2022-11-25T14:39:35;8.88;;;2.92;;
74421;SDS011;62856;51.446;8.360;2022-11-25T14:42:09;12.57;;;3.17;;
74421;SDS011;62856;51.446;8.360;2022-11-25T14:44:46;9.10;;;3.13;;
74421;SDS011;62856;51.446;8.360;2022-11-25T14:47:14;11.00;;;3.17;;
74421;SDS011;62856;51.446;8.360;2022-11-25T14:49:50;8.23;;;2.83;;
74421;SDS011;62856;51.446;8.360;2022-11-25T14:52:17;10.77;;;3.40;;
74421;SDS011;62856;51.446;8.360;2022-11-25T14:54:46;11.93;;;4.20;;
74421;SDS011;62856;51.446;8.360;2022-11-25T14:57:12;11.40;;;3.75;;
74421;SDS011;62856;51.446;8.360;2022-11-25T14:59:38;11.07;;;3.80;;
74421;SDS011;62856;51.446;8.360;2022-11-25T15:02:04;10.85;;;3.72;;
74421;SDS011;62856;51.446;8.360;2022-11-25T15:04:30;12.73;;;3.17;;
74421;SDS011;62856;51.446;8.360;2022-11-25T15:09:27;12.93;;;3.80;;
74421;SDS011;62856;51.446;8.360;2022-11-25T15:12:01;13.15;;;3.90;;
74421;SDS011;62856;51.446;8.360;2022-11-25T15:14:32;10.95;;;3.78;;
74421;SDS011;62856;51.446;8.360;2022-11-25T15:16:59;12.00;;;3.75;;
74421;SDS011;62856;51.446;8.360;2022-11-25T15:19:33;11.60;;;3.45;;
74421;SDS011;62856;51.446;8.360;2022-11-25T15:28:17;10.95;;;2.80;;
74421;SDS011;62856;51.446;8.360;2022-11-25T15:30:44;10.15;;;3.10;;
74421;SDS011;62856;51.446;8.360;2022-11-25T15:33:20;8.18;;;2.70;;
74421;SDS011;62856;51.446;8.360;2022-11-25T15:35:48;11.18;;;3.22;;
74421;SDS011;62856;51.446;8.360;2022-11-25T15:40:59;10.82;;;2.85;;
74421;SDS011;62856;51.446;8.360;2022-11-25T15:43:26;9.45;;;3.25;;
74421;SDS011;62856;51.446;8.360;2022-11-25T15:46:01;10.18;;;3.08;;
74421;SDS011;62856;51.446;8.360;2022-11-25T15:48:30;9.98;;;3.03;;
74421;SDS011;62856;51.446;8.360;2022-11-25T15:53:43;9.07;;;2.90;;
74421;SDS011;62856;51.446;8.360;2022-11-25T15:56:11;8.10;;;2.88;;
74421;SDS011;62856;51.446;8.360;2022-11-25T16:03:44;8.50;;;2.33;;
74421;SDS011;62856;51.446;8.360;2022-11-25T16:06:26;8.13;;;2.53;;
74421;SDS011;62856;51.446;8.360;2022-11-25T16:08:58;7.68;;;2.22;;
74421;SDS011;62856;51.446;8.360;2022-11-25T16:11:26;8.18;;;2.08;;
74421;SDS011;62856;51.446;8.360;2022-11-25T16:14:15;6.93;;;2.00;;
74421;SDS011;62856;51.446;8.360;2022-11-25T16:16:43;8.57;;;2.05;;
74421;SDS011;62856;51.446;8.360;2022-11-25T16:29:16;8.98;;;2.65;;
74421;SDS011;62856;51.446;8.360;2022-11-25T16:31:43;11.90;;;2.75;;
74421;SDS011;62856;51.446;8.360;2022-11-25T16:34:13;8.35;;;2.20;;
74421;SDS011;62856;51.446;8.360;2022-11-25T16:36:40;6.70;;;2.38;;
74421;SDS011;62856;51.446;8.360;2022-11-25T16:39:06;7.22;;;2.22;;
74421;SDS011;62856;51.446;8.360;2022-11-25T16:41:31;8.97;;;2.17;;
74421;SDS011;62856;51.446;8.360;2022-11-25T16:43:57;6.95;;;2.05;;
74421;SDS011;62856;51.446;8.360;2022-11-25T16:46:23;6.75;;;2.38;;
74421;SDS011;62856;51.446;8.360;2022-11-25T16:48:48;8.35;;;2.28;;
74421;SDS011;62856;51.446;8.360;2022-11-25T16:51:16;8.20;;;2.40;;
74421;SDS011;62856;51.446;8.360;2022-11-25T16:53:47;6.63;;;2.17;;
74421;SDS011;62856;51.446;8.360;2022-11-25T16:56:22;7.60;;;2.20;;
74421;SDS011;62856;51.446;8.360;2022-11-25T16:58:51;6.72;;;1.90;;
74421;SDS011;62856;51.446;8.360;2022-11-25T17:01:18;7.05;;;1.88;;
74421;SDS011;62856;51.446;8.360;2022-11-25T17:03:46;8.60;;;2.08;;
74421;SDS011;62856;51.446;8.360;2022-11-25T17:06:16;7.13;;;2.13;;
74421;SDS011;62856;51.446;8.360;2022-11-25T17:08:43;5.63;;;1.95;;
74421;SDS011;62856;51.446;8.360;2022-11-25T17:11:11;6.75;;;2.00;;